sensor_id;sensor_type;location;lat;lon;timestamp;pressure;altitude;pressure_sealevel;temperature;humidity
15529;BME280;7866;52.280;9.500;2023-06-19T00:04:05;99853.69;;;21.81;54.71
15529;BME280;7866;52.280;9.500;2023-06-19T00:09:08;99847.59;;;21.96;54.17
15529;BME280;7866;52.280;9.500;2023-06-19T00:14:10;99843.78;;;21.97;53.60
15529;BME280;7866;52.280;9.500;2023-06-19T00:19:11;99845.44;;;21.98;54.21
15529;BME280;7866;52.280;9.500;2023-06-19T00:24:15;99838.25;;;21.86;54.01
15529;BME280;7866;52.280;9.500;2023-06-19T00:29:16;99829.53;;;21.89;53.67
15529;BME280;7866;52.280;9.500;2023-06-19T00:34:18;99818.75;;;21.78;53.92
15529;BME280;7866;52.280;9.500;2023-06-19T00:39:21;99826.28;;;21.93;53.71
15529;BME280;7866;52.280;9.500;2023-06-19T00:44:22;99810.75;;;21.93;53.90
15529;BME280;7866;52.280;9.500;2023-06-19T00:49:25;99799.59;;;21.95;54.07
15529;BME280;7866;52.280;9.500;2023-06-19T00:54:30;99798.81;;;21.72;54.70
15529;BME280;7866;52.280;9.500;2023-06-19T00:59:32;99797.69;;;21.68;54.81
15529;BME280;7866;52.280;9.500;2023-06-19T01:04:34;99809.00;;;21.82;53.64
15529;BME280;7866;52.280;9.500;2023-06-19T01:09:42;99786.22;;;22.20;51.39
15529;BME280;7866;52.280;9.500;2023-06-19T01:14:50;99786.88;;;22.32;50.92
15529;BME280;7866;52.280;9.500;2023-06-19T01:19:54;99786.38;;;22.35;51.28
15529;BME280;7866;52.280;9.500;2023-06-19T01:24:58;99772.78;;;22.13;52.32
15529;BME280;7866;52.280;9.500;2023-06-19T01:30:01;99768.06;;;22.04;53.66
15529;BME280;7866;52.280;9.500;2023-06-19T01:35:04;99758.72;;;21.95;53.63
15529;BME280;7866;52.280;9.500;2023-06-19T01:40:11;99769.06;;;21.98;51.64
15529;BME280;7866;52.280;9.500;2023-06-19T01:45:13;99768.16;;;22.14;51.07
15529;BME280;7866;52.280;9.500;2023-06-19T01:50:15;99777.44;;;22.13;51.03
15529;BME280;7866;52.280;9.500;2023-06-19T01:55:18;99769.47;;;22.38;50.02
15529;BME280;7866;52.280;9.500;2023-06-19T02:00:20;99761.31;;;22.11;51.12
15529;BME280;7866;52.280;9.500;2023-06-19T02:05:22;99750.88;;;22.30;49.56
15529;BME280;7866;52.280;9.500;2023-06-19T02:10:25;99735.19;;;22.53;49.79
15529;BME280;7866;52.280;9.500;2023-06-19T02:15:27;99732.78;;;22.61;49.55
15529;BME280;7866;52.280;9.500;2023-06-19T02:20:28;99729.09;;;22.41;49.96
15529;BME280;7866;52.280;9.500;2023-06-19T02:25:31;99730.34;;;22.65;48.21
15529;BME280;7866;52.280;9.500;2023-06-19T02:30:35;99735.22;;;22.95;47.88
15529;BME280;7866;52.280;9.500;2023-06-19T02:35:36;99718.53;;;22.97;47.85
15529;BME280;7866;52.280;9.500;2023-06-19T02:40:39;99716.91;;;23.01;47.51
15529;BME280;7866;52.280;9.500;2023-06-19T02:45:41;99718.91;;;23.26;46.67
15529;BME280;7866;52.280;9.500;2023-06-19T02:50:43;99720.91;;;23.41;46.16
15529;BME280;7866;52.280;9.500;2023-06-19T02:55:46;99711.06;;;23.34;46.36
15529;BME280;7866;52.280;9.500;2023-06-19T03:00:48;99709.44;;;23.44;46.00
15529;BME280;7866;52.280;9.500;2023-06-19T03:05:49;99714.91;;;23.49;46.31
15529;BME280;7866;52.280;9.500;2023-06-19T03:10:52;99714.91;;;23.49;45.71
15529;BME280;7866;52.280;9.500;2023-06-19T03:15:54;99726.69;;;23.59;45.43
15529;BME280;7866;52.280;9.500;2023-06-19T03:20:56;99726.19;;;23.68;45.27
15529;BME280;7866;52.280;9.500;2023-06-19T03:25:59;99733.81;;;23.66;45.36
15529;BME280;7866;52.280;9.500;2023-06-19T03:31:00;99742.03;;;23.66;45.34
15529;BME280;7866;52.280;9.500;2023-06-19T03:36:02;99746.72;;;23.80;45.30
15529;BME280;7866;52.280;9.500;2023-06-19T03:41:05;99736.88;;;23.79;45.15
15529;BME280;7866;52.280;9.500;2023-06-19T03:46:07;99751.63;;;23.73;45.55
15529;BME280;7866;52.280;9.500;2023-06-19T03:51:08;99742.88;;;23.76;45.13
15529;BME280;7866;52.280;9.500;2023-06-19T03:56:11;99751.63;;;23.68;45.64
15529;BME280;7866;52.280;9.500;2023-06-19T04:01:13;99749.91;;;23.52;46.12
15529;BME280;7866;52.280;9.500;2023-06-19T04:06:15;99752.66;;;23.57;46.41
15529;BME280;7866;52.280;9.500;2023-06-19T04:11:18;99756.75;;;23.54;45.98
15529;BME280;7866;52.280;9.500;2023-06-19T04:16:20;99722.34;;;23.69;45.60
15529;BME280;7866;52.280;9.500;2023-06-19T04:21:21;99733.81;;;23.66;46.23
15529;BME280;7866;52.280;9.500;2023-06-19T04:26:24;99734.03;;;23.44;47.06
15529;BME280;7866;52.280;9.500;2023-06-19T04:31:26;99761.59;;;23.32;48.24
15529;BME280;7866;52.280;9.500;2023-06-19T04:36:28;99759.88;;;23.10;48.88
15529;BME280;7866;52.280;9.500;2023-06-19T04:41:33;99763.22;;;22.85;51.52
15529;BME280;7866;52.280;9.500;2023-06-19T04:46:38;99761.63;;;22.47;54.24
15529;BME280;7866;52.280;9.500;2023-06-19T04:51:40;99765.19;;;22.16;56.06
15529;BME280;7866;52.280;9.500;2023-06-19T04:56:43;99768.66;;;22.11;56.90
15529;BME280;7866;52.280;9.500;2023-06-19T05:01:45;99761.31;;;22.11;57.30
15529;BME280;7866;52.280;9.500;2023-06-19T05:06:46;99768.75;;;21.94;58.56
15529;BME280;7866;52.280;9.500;2023-06-19T05:11:49;99775.28;;;22.15;58.30
15529;BME280;7866;52.280;9.500;2023-06-19T05:16:51;99779.31;;;22.40;57.43
15529;BME280;7866;52.280;9.500;2023-06-19T05:21:52;99780.41;;;22.38;57.96
15529;BME280;7866;52.280;9.500;2023-06-19T05:26:55;99785.06;;;22.43;58.62
15529;BME280;7866;52.280;9.500;2023-06-19T05:31:57;99778.19;;;22.35;58.30
15529;BME280;7866;52.280;9.500;2023-06-19T05:36:58;99775.94;;;22.27;58.86
15529;BME280;7866;52.280;9.500;2023-06-19T05:42:06;99778.69;;;22.32;58.84
15529;BME280;7866;52.280;9.500;2023-06-19T05:47:08;99792.13;;;22.39;59.38
15529;BME280;7866;52.280;9.500;2023-06-19T05:52:09;99797.59;;;22.39;58.88
15529;BME280;7866;52.280;9.500;2023-06-19T05:57:12;99801.97;;;22.40;59.78
15529;BME280;7866;52.280;9.500;2023-06-19T06:02:16;99806.19;;;22.58;57.24
15529;BME280;7866;52.280;9.500;2023-06-19T06:07:19;99806.25;;;22.63;57.96
15529;BME280;7866;52.280;9.500;2023-06-19T06:12:22;99812.31;;;22.70;58.34
15529;BME280;7866;52.280;9.500;2023-06-19T06:17:23;99819.22;;;22.83;57.54
15529;BME280;7866;52.280;9.500;2023-06-19T06:22:25;99826.66;;;22.93;58.05
15529;BME280;7866;52.280;9.500;2023-06-19T06:27:28;99828.75;;;22.85;59.55
15529;BME280;7866;52.280;9.500;2023-06-19T06:32:29;99842.84;;;22.99;58.84
15529;BME280;7866;52.280;9.500;2023-06-19T06:37:31;99841.81;;;23.10;59.63
15529;BME280;7866;52.280;9.500;2023-06-19T06:42:34;99852.00;;;23.25;59.28
15529;BME280;7866;52.280;9.500;2023-06-19T06:47:35;99860.56;;;23.44;58.73
15529;BME280;7866;52.280;9.500;2023-06-19T06:52:37;99860.81;;;23.95;58.68
15529;BME280;7866;52.280;9.500;2023-06-19T06:57:40;99862.22;;;25.36;53.59
15529;BME280;7866;52.280;9.500;2023-06-19T07:02:42;99874.09;;;25.96;50.33
15529;BME280;7866;52.280;9.500;2023-06-19T07:07:43;99872.31;;;26.15;49.52
15529;BME280;7866;52.280;9.500;2023-06-19T07:12:47;99882.59;;;25.94;51.09
15529;BME280;7866;52.280;9.500;2023-06-19T07:17:49;99882.69;;;25.79;50.55
15529;BME280;7866;52.280;9.500;2023-06-19T07:22:51;99881.81;;;25.84;51.35
15529;BME280;7866;52.280;9.500;2023-06-19T07:27:55;99884.91;;;25.62;52.30
15529;BME280;7866;52.280;9.500;2023-06-19T07:32:57;99884.28;;;25.85;51.60
15529;BME280;7866;52.280;9.500;2023-06-19T07:37:58;99890.22;;;26.52;49.96
15529;BME280;7866;52.280;9.500;2023-06-19T07:43:01;99889.44;;;26.81;49.31
15529;BME280;7866;52.280;9.500;2023-06-19T07:48:03;99895.50;;;27.41;48.99
15529;BME280;7866;52.280;9.500;2023-06-19T07:53:04;99892.06;;;27.54;48.90
15529;BME280;7866;52.280;9.500;2023-06-19T07:58:08;99880.88;;;27.45;49.34
15529;BME280;7866;52.280;9.500;2023-06-19T08:03:09;99891.19;;;27.35;48.97
15529;BME280;7866;52.280;9.500;2023-06-19T08:08:12;99897.06;;;27.23;49.37
15529;BME280;7866;52.280;9.500;2023-06-19T08:13:15;99904.16;;;27.29;50.08
15529;BME280;7866;52.280;9.500;2023-06-19T08:18:16;99896.63;;;27.40;49.99
15529;BME280;7866;52.280;9.500;2023-06-19T08:23:18;99907.63;;;27.64;49.54
15529;BME280;7866;52.280;9.500;2023-06-19T08:28:21;99902.50;;;27.81;49.02
15529;BME280;7866;52.280;9.500;2023-06-19T08:33:22;99902.63;;;28.33;49.02
15529;BME280;7866;52.280;9.500;2023-06-19T08:38:24;99905.19;;;27.86;49.23
15529;BME280;7866;52.280;9.500;2023-06-19T08:43:27;99902.25;;;28.02;49.41
15529;BME280;7866;52.280;9.500;2023-06-19T08:48:28;99906.03;;;28.24;48.83
15529;BME280;7866;52.280;9.500;2023-06-19T08:53:32;99909.41;;;28.40;48.48
15529;BME280;7866;52.280;9.500;2023-06-19T08:58:36;99911.34;;;28.40;48.51
15529;BME280;7866;52.280;9.500;2023-06-19T09:03:38;99923.44;;;27.53;50.12
15529;BME280;7866;52.280;9.500;2023-06-19T09:08:40;99918.94;;;27.62;51.11
15529;BME280;7866;52.280;9.500;2023-06-19T09:13:42;99922.56;;;28.24;49.16
15529;BME280;7866;52.280;9.500;2023-06-19T09:18:45;99924.00;;;28.22;48.91
15529;BME280;7866;52.280;9.500;2023-06-19T09:23:47;99926.63;;;27.60;51.02
15529;BME280;7866;52.280;9.500;2023-06-19T09:28:52;99932.44;;;27.59;51.08
15529;BME280;7866;52.280;9.500;2023-06-19T09:33:54;99939.47;;;26.83;52.17
15529;BME280;7866;52.280;9.500;2023-06-19T09:38:56;99939.00;;;26.70;53.14
15529;BME280;7866;52.280;9.500;2023-06-19T09:44:02;99957.78;;;26.92;52.17
15529;BME280;7866;52.280;9.500;2023-06-19T09:49:05;99959.97;;;26.61;53.60
15529;BME280;7866;52.280;9.500;2023-06-19T09:54:07;99961.13;;;26.40;53.37
15529;BME280;7866;52.280;9.500;2023-06-19T09:59:12;99960.28;;;26.89;52.90
15529;BME280;7866;52.280;9.500;2023-06-19T10:04:14;99957.03;;;27.50;50.98
15529;BME280;7866;52.280;9.500;2023-06-19T10:09:17;99962.06;;;27.43;51.99
15529;BME280;7866;52.280;9.500;2023-06-19T10:14:21;99972.44;;;28.23;49.49
15529;BME280;7866;52.280;9.500;2023-06-19T10:19:24;99966.84;;;27.56;51.22
15529;BME280;7866;52.280;9.500;2023-06-19T10:24:26;99965.00;;;27.22;51.97
15529;BME280;7866;52.280;9.500;2023-06-19T10:29:39;99969.00;;;28.55;49.66
15529;BME280;7866;52.280;9.500;2023-06-19T10:34:45;99965.84;;;28.00;51.24
15529;BME280;7866;52.280;9.500;2023-06-19T10:39:47;99962.28;;;28.99;48.33
15529;BME280;7866;52.280;9.500;2023-06-19T10:44:50;99963.47;;;28.93;47.81
15529;BME280;7866;52.280;9.500;2023-06-19T10:49:51;99963.94;;;28.43;48.47
15529;BME280;7866;52.280;9.500;2023-06-19T10:54:53;99960.81;;;27.83;50.21
15529;BME280;7866;52.280;9.500;2023-06-19T10:59:57;99956.59;;;27.91;49.69
15529;BME280;7866;52.280;9.500;2023-06-19T11:04:59;99954.53;;;28.63;48.04
15529;BME280;7866;52.280;9.500;2023-06-19T11:10:01;99966.84;;;28.28;47.71
15529;BME280;7866;52.280;9.500;2023-06-19T11:15:06;99968.72;;;27.90;48.25
15529;BME280;7866;52.280;9.500;2023-06-19T11:20:10;99971.69;;;27.69;50.01
15529;BME280;7866;52.280;9.500;2023-06-19T11:25:11;99981.91;;;28.36;48.83
15529;BME280;7866;52.280;9.500;2023-06-19T11:30:15;99978.69;;;28.10;48.80
15529;BME280;7866;52.280;9.500;2023-06-19T11:35:16;99978.63;;;28.34;48.97
15529;BME280;7866;52.280;9.500;2023-06-19T11:40:18;99991.88;;;27.89;49.79
15529;BME280;7866;52.280;9.500;2023-06-19T11:45:24;100004.31;;;27.52;50.71
15529;BME280;7866;52.280;9.500;2023-06-19T11:50:27;99996.59;;;27.54;49.80
15529;BME280;7866;52.280;9.500;2023-06-19T11:55:28;99996.81;;;28.11;48.66
15529;BME280;7866;52.280;9.500;2023-06-19T12:00:31;99991.41;;;28.67;46.81
15529;BME280;7866;52.280;9.500;2023-06-19T12:05:33;100001.09;;;29.03;47.34
15529;BME280;7866;52.280;9.500;2023-06-19T12:10:34;99997.16;;;29.55;45.14
15529;BME280;7866;52.280;9.500;2023-06-19T12:15:38;99999.78;;;29.65;45.42
15529;BME280;7866;52.280;9.500;2023-06-19T12:20:39;100005.44;;;29.09;46.32
15529;BME280;7866;52.280;9.500;2023-06-19T12:25:41;100002.19;;;28.64;46.92
15529;BME280;7866;52.280;9.500;2023-06-19T12:30:44;100014.03;;;28.64;46.88
15529;BME280;7866;52.280;9.500;2023-06-19T12:35:46;100013.75;;;29.04;46.04
15529;BME280;7866;52.280;9.500;2023-06-19T12:40:48;100017.19;;;28.77;46.62
15529;BME280;7866;52.280;9.500;2023-06-19T12:45:51;100007.72;;;28.64;45.96
15529;BME280;7866;52.280;9.500;2023-06-19T12:50:53;100012.13;;;28.46;46.73
15529;BME280;7866;52.280;9.500;2023-06-19T12:55:56;100014.28;;;28.49;45.51
15529;BME280;7866;52.280;9.500;2023-06-19T13:01:00;100011.22;;;28.51;45.58
15529;BME280;7866;52.280;9.500;2023-06-19T13:06:02;100020.00;;;28.53;45.64
15529;BME280;7866;52.280;9.500;2023-06-19T13:11:04;100010.91;;;28.28;45.78
15529;BME280;7866;52.280;9.500;2023-06-19T13:16:07;100007.78;;;28.59;45.37
15529;BME280;7866;52.280;9.500;2023-06-19T13:21:10;100008.16;;;28.28;45.28
15529;BME280;7866;52.280;9.500;2023-06-19T13:26:12;100031.56;;;27.83;46.36
15529;BME280;7866;52.280;9.500;2023-06-19T13:31:14;100013.19;;;28.02;46.36
15529;BME280;7866;52.280;9.500;2023-06-19T13:36:16;100018.91;;;27.82;47.10
15529;BME280;7866;52.280;9.500;2023-06-19T13:41:19;100016.56;;;28.42;45.66
15529;BME280;7866;52.280;9.500;2023-06-19T13:46:22;100007.06;;;29.56;42.95
15529;BME280;7866;52.280;9.500;2023-06-19T13:51:24;100010.34;;;29.44;43.92
15529;BME280;7866;52.280;9.500;2023-06-19T13:56:25;100013.03;;;28.98;44.59
15529;BME280;7866;52.280;9.500;2023-06-19T14:01:28;100008.84;;;28.82;45.20
15529;BME280;7866;52.280;9.500;2023-06-19T14:06:30;100010.22;;;29.96;43.57
15529;BME280;7866;52.280;9.500;2023-06-19T14:11:31;100018.19;;;29.37;43.64
15529;BME280;7866;52.280;9.500;2023-06-19T14:16:34;100019.13;;;28.95;44.57
15529;BME280;7866;52.280;9.500;2023-06-19T14:21:36;100022.25;;;29.07;45.06
15529;BME280;7866;52.280;9.500;2023-06-19T14:26:38;100040.72;;;29.26;44.30
15529;BME280;7866;52.280;9.500;2023-06-19T14:31:40;100027.41;;;28.57;45.42
15529;BME280;7866;52.280;9.500;2023-06-19T14:36:42;100036.09;;;28.83;45.23
15529;BME280;7866;52.280;9.500;2023-06-19T14:41:44;100032.09;;;28.57;46.08
15529;BME280;7866;52.280;9.500;2023-06-19T14:46:48;100026.53;;;29.32;43.72
15529;BME280;7866;52.280;9.500;2023-06-19T14:51:49;100023.81;;;28.94;44.41
15529;BME280;7866;52.280;9.500;2023-06-19T14:56:51;100008.69;;;29.11;44.10
15529;BME280;7866;52.280;9.500;2023-06-19T15:01:55;100025.06;;;29.73;42.98
15529;BME280;7866;52.280;9.500;2023-06-19T15:06:56;100017.09;;;29.52;43.59
15529;BME280;7866;52.280;9.500;2023-06-19T15:11:58;100012.88;;;29.74;43.43
15529;BME280;7866;52.280;9.500;2023-06-19T15:17:01;100011.28;;;28.83;44.61
15529;BME280;7866;52.280;9.500;2023-06-19T15:22:03;100015.22;;;28.39;44.82
15529;BME280;7866;52.280;9.500;2023-06-19T15:27:05;100014.22;;;28.73;44.24
15529;BME280;7866;52.280;9.500;2023-06-19T15:32:08;100010.50;;;29.34;43.86
15529;BME280;7866;52.280;9.500;2023-06-19T15:37:09;100006.19;;;29.28;43.54
15529;BME280;7866;52.280;9.500;2023-06-19T15:42:11;100005.91;;;28.97;43.15
15529;BME280;7866;52.280;9.500;2023-06-19T15:47:14;99999.38;;;28.88;43.77
15529;BME280;7866;52.280;9.500;2023-06-19T15:52:16;100001.69;;;28.81;43.38
15529;BME280;7866;52.280;9.500;2023-06-19T15:57:18;99997.09;;;28.57;43.74
15529;BME280;7866;52.280;9.500;2023-06-19T16:02:21;99995.81;;;28.50;44.21
15529;BME280;7866;52.280;9.500;2023-06-19T16:07:23;99985.53;;;28.55;44.09
15529;BME280;7866;52.280;9.500;2023-06-19T16:12:24;99984.41;;;28.94;43.43
15529;BME280;7866;52.280;9.500;2023-06-19T16:17:27;99983.97;;;28.49;44.44
15529;BME280;7866;52.280;9.500;2023-06-19T16:22:29;99981.94;;;28.12;45.29
15529;BME280;7866;52.280;9.500;2023-06-19T16:27:31;99981.75;;;28.27;44.83
15529;BME280;7866;52.280;9.500;2023-06-19T16:32:33;99977.63;;;28.24;45.13
15529;BME280;7866;52.280;9.500;2023-06-19T16:37:36;99981.69;;;28.08;45.49
15529;BME280;7866;52.280;9.500;2023-06-19T16:42:38;99988.28;;;27.59;45.91
15529;BME280;7866;52.280;9.500;2023-06-19T16:47:41;99979.75;;;27.90;45.20
15529;BME280;7866;52.280;9.500;2023-06-19T16:52:43;99978.72;;;27.81;45.78
15529;BME280;7866;52.280;9.500;2023-06-19T16:57:44;99976.50;;;28.07;45.82
15529;BME280;7866;52.280;9.500;2023-06-19T17:02:48;99977.63;;;28.06;45.01
15529;BME280;7866;52.280;9.500;2023-06-19T17:07:54;99975.53;;;27.97;45.19
15529;BME280;7866;52.280;9.500;2023-06-19T17:12:56;99974.34;;;27.80;45.08
15529;BME280;7866;52.280;9.500;2023-06-19T17:17:59;99970.16;;;27.58;46.01
15529;BME280;7866;52.280;9.500;2023-06-19T17:23:01;99986.94;;;27.57;45.48
15529;BME280;7866;52.280;9.500;2023-06-19T17:28:03;99983.34;;;27.61;45.26
15529;BME280;7866;52.280;9.500;2023-06-19T17:33:06;99990.91;;;27.74;46.07
15529;BME280;7866;52.280;9.500;2023-06-19T17:38:08;99995.13;;;27.38;46.01
15529;BME280;7866;52.280;9.500;2023-06-19T17:43:09;100006.00;;;27.48;46.22
15529;BME280;7866;52.280;9.500;2023-06-19T17:48:12;100000.50;;;27.48;47.85
15529;BME280;7866;52.280;9.500;2023-06-19T17:53:14;99995.03;;;27.14;48.76
15529;BME280;7866;52.280;9.500;2023-06-19T17:58:15;99999.75;;;27.03;49.64
15529;BME280;7866;52.280;9.500;2023-06-19T18:03:18;99999.97;;;26.77;49.19
15529;BME280;7866;52.280;9.500;2023-06-19T18:08:20;100006.06;;;26.64;51.21
15529;BME280;7866;52.280;9.500;2023-06-19T18:13:22;100011.94;;;26.47;51.61
15529;BME280;7866;52.280;9.500;2023-06-19T18:18:25;100012.56;;;26.24;52.97
15529;BME280;7866;52.280;9.500;2023-06-19T18:23:26;100016.19;;;26.14;52.77
15529;BME280;7866;52.280;9.500;2023-06-19T18:28:28;100009.69;;;25.90;54.00
15529;BME280;7866;52.280;9.500;2023-06-19T18:33:31;100024.44;;;26.04;53.40
15529;BME280;7866;52.280;9.500;2023-06-19T18:38:33;100025.03;;;25.91;54.08
15529;BME280;7866;52.280;9.500;2023-06-19T18:43:34;100021.75;;;25.68;54.86
15529;BME280;7866;52.280;9.500;2023-06-19T18:48:37;100034.41;;;25.54;55.30
15529;BME280;7866;52.280;9.500;2023-06-19T18:53:41;100026.72;;;25.30;56.03
15529;BME280;7866;52.280;9.500;2023-06-19T18:58:42;100023.44;;;25.28;55.74
15529;BME280;7866;52.280;9.500;2023-06-19T19:03:45;100031.63;;;25.03;56.32
15529;BME280;7866;52.280;9.500;2023-06-19T19:08:47;100029.41;;;25.05;56.03
15529;BME280;7866;52.280;9.500;2023-06-19T19:13:54;100037.59;;;24.74;56.75
15529;BME280;7866;52.280;9.500;2023-06-19T19:18:57;100035.78;;;24.38;57.45
15529;BME280;7866;52.280;9.500;2023-06-19T19:23:59;100039.59;;;24.31;57.21
15529;BME280;7866;52.280;9.500;2023-06-19T19:29:00;100046.19;;;24.36;56.90
15529;BME280;7866;52.280;9.500;2023-06-19T19:34:03;100048.34;;;24.28;56.83
15529;BME280;7866;52.280;9.500;2023-06-19T19:39:05;100047.94;;;24.04;57.58
15529;BME280;7866;52.280;9.500;2023-06-19T19:44:06;100052.19;;;23.80;57.90
15529;BME280;7866;52.280;9.500;2023-06-19T19:49:09;100059.25;;;23.71;58.17
15529;BME280;7866;52.280;9.500;2023-06-19T19:54:11;100062.38;;;23.57;58.25
15529;BME280;7866;52.280;9.500;2023-06-19T19:59:13;100065.38;;;23.24;59.39
15529;BME280;7866;52.280;9.500;2023-06-19T20:04:16;100073.75;;;23.12;59.85
15529;BME280;7866;52.280;9.500;2023-06-19T20:09:17;100081.59;;;23.03;59.94
15529;BME280;7866;52.280;9.500;2023-06-19T20:14:19;100084.06;;;23.05;59.33
15529;BME280;7866;52.280;9.500;2023-06-19T20:19:22;100093.28;;;22.99;59.47
15529;BME280;7866;52.280;9.500;2023-06-19T20:24:23;100094.56;;;22.91;59.37
15529;BME280;7866;52.280;9.500;2023-06-19T20:29:25;100102.94;;;22.84;60.10
15529;BME280;7866;52.280;9.500;2023-06-19T20:34:28;100094.63;;;22.74;59.84
15529;BME280;7866;52.280;9.500;2023-06-19T20:39:30;100094.50;;;22.64;60.33
15529;BME280;7866;52.280;9.500;2023-06-19T20:44:32;100092.03;;;22.62;60.67
15529;BME280;7866;52.280;9.500;2023-06-19T20:49:36;100094.91;;;22.51;60.82
15529;BME280;7866;52.280;9.500;2023-06-19T20:54:38;100092.84;;;22.41;61.32
15529;BME280;7866;52.280;9.500;2023-06-19T20:59:39;100088.75;;;22.38;60.93
15529;BME280;7866;52.280;9.500;2023-06-19T21:04:42;100102.22;;;22.28;61.31
15529;BME280;7866;52.280;9.500;2023-06-19T21:09:44;100092.75;;;22.14;61.64
15529;BME280;7866;52.280;9.500;2023-06-19T21:14:46;100110.34;;;22.23;61.67
15529;BME280;7866;52.280;9.500;2023-06-19T21:19:49;100095.13;;;22.27;61.69
15529;BME280;7866;52.280;9.500;2023-06-19T21:24:50;100094.16;;;22.17;61.83
15529;BME280;7866;52.280;9.500;2023-06-19T21:29:52;100105.13;;;22.05;62.20
15529;BME280;7866;52.280;9.500;2023-06-19T21:34:55;100099.75;;;22.10;61.80
15529;BME280;7866;52.280;9.500;2023-06-19T21:39:56;100099.75;;;22.10;62.06
15529;BME280;7866;52.280;9.500;2023-06-19T21:44:58;100088.44;;;22.01;61.68
15529;BME280;7866;52.280;9.500;2023-06-19T21:50:01;100103.34;;;21.94;62.33
15529;BME280;7866;52.280;9.500;2023-06-19T21:55:04;100095.81;;;22.01;62.38
15529;BME280;7866;52.280;9.500;2023-06-19T22:00:07;100095.31;;;22.04;61.96
15529;BME280;7866;52.280;9.500;2023-06-19T22:05:14;100089.78;;;21.82;62.59
15529;BME280;7866;52.280;9.500;2023-06-19T22:10:15;100095.16;;;21.77;63.42
15529;BME280;7866;52.280;9.500;2023-06-19T22:15:17;100098.50;;;21.79;62.99
15529;BME280;7866;52.280;9.500;2023-06-19T22:20:20;100104.59;;;21.69;63.84
15529;BME280;7866;52.280;9.500;2023-06-19T22:25:22;100106.25;;;21.53;64.65
15529;BME280;7866;52.280;9.500;2023-06-19T22:30:23;100083.78;;;21.46;64.76
15529;BME280;7866;52.280;9.500;2023-06-19T22:35:26;100084.72;;;21.23;65.29
15529;BME280;7866;52.280;9.500;2023-06-19T22:40:29;100086.25;;;21.48;64.72
15529;BME280;7866;52.280;9.500;2023-06-19T22:45:30;100099.13;;;21.35;64.69
15529;BME280;7866;52.280;9.500;2023-06-19T22:50:34;100090.56;;;21.44;64.27
15529;BME280;7866;52.280;9.500;2023-06-19T22:55:35;100100.06;;;21.29;64.71
15529;BME280;7866;52.280;9.500;2023-06-19T23:00:37;100099.69;;;21.37;64.18
15529;BME280;7866;52.280;9.500;2023-06-19T23:05:40;100092.16;;;21.28;65.02
15529;BME280;7866;52.280;9.500;2023-06-19T23:10:41;100093.13;;;21.22;65.46
15529;BME280;7866;52.280;9.500;2023-06-19T23:15:43;100093.88;;;21.17;65.76
15529;BME280;7866;52.280;9.500;2023-06-19T23:20:46;100092.38;;;21.09;65.83
15529;BME280;7866;52.280;9.500;2023-06-19T23:25:48;100080.38;;;20.94;66.45
15529;BME280;7866;52.280;9.500;2023-06-19T23:30:50;100096.69;;;20.94;66.92
15529;BME280;7866;52.280;9.500;2023-06-19T23:35:53;100103.47;;;20.91;67.14
15529;BME280;7866;52.280;9.500;2023-06-19T23:40:56;100098.91;;;20.80;67.43
15529;BME280;7866;52.280;9.500;2023-06-19T23:45:58;100098.47;;;21.00;66.54
15529;BME280;7866;52.280;9.500;2023-06-19T23:51:01;100113.63;;;20.96;67.19
15529;BME280;7866;52.280;9.500;2023-06-19T23:56:03;100120.47;;;20.98;67.06
